Time;durP1;ratioP1;P1;durP2;ratioP2;P2;SDS_P1;SDS_P2;PMS_P1;PMS_P2;Temp;Humidity;BMP_temperature;BMP_pressure;BME280_temperature;BME280_humidity;BME280_pressure;Samples;Min_cycle;Max_cycle;Signal;HPM_P1;HPM_P2
2023/01/13 00:00:40;;;;;;;0.55;0.50;;;;;;;9.25;100.00;97891.41;2585388;28;20054;-84
2023/01/13 00:02:10;;;;;;;1.02;0.63;;;;;;;9.36;100.00;97893.72;2586684;28;20445;-84
2023/01/13 00:03:25;;;;;;;1.63;0.70;;;;;;;9.33;100.00;97892.03;2587138;28;20045;-83
2023/01/13 00:04:41;;;;;;;5.97;1.20;;;;;;;9.35;100.00;97888.53;2587257;28;20049;-84
2023/01/13 00:05:58;;;;;;;0.60;0.50;;;;;;;9.46;100.00;97889.88;2586678;28;20073;-87
2023/01/13 00:07:13;;;;;;;0.90;0.70;;;;;;;9.54;100.00;97887.00;2587275;28;20381;-84
2023/01/13 00:08:30;;;;;;;1.13;0.57;;;;;;;9.41;100.00;97888.31;2587117;28;20057;-83
2023/01/13 00:09:45;;;;;;;1.13;0.60;;;;;;;9.50;100.00;97892.38;2586709;28;20057;-83
2023/01/13 00:11:01;;;;;;;2.10;0.70;;;;;;;9.43;100.00;97891.75;2586978;28;20137;-87
2023/01/13 00:12:17;;;;;;;1.42;0.70;;;;;;;9.40;100.00;97900.53;2587238;28;20053;-84
2023/01/13 00:13:34;;;;;;;1.40;0.77;;;;;;;9.60;100.00;97893.78;2587029;28;20042;-84
2023/01/13 00:14:49;;;;;;;1.63;0.77;;;;;;;9.53;100.00;97903.59;2586879;28;20630;-85
2023/01/13 00:16:08;;;;;;;1.92;0.70;;;;;;;9.68;100.00;97881.34;2586595;28;20049;-84
2023/01/13 00:17:24;;;;;;;1.63;0.85;;;;;;;9.68;100.00;97891.78;2587140;28;21058;-87
2023/01/13 00:18:40;;;;;;;0.90;0.73;;;;;;;9.77;100.00;97895.00;2587290;28;20076;-84
2023/01/13 00:19:55;;;;;;;2.08;0.70;;;;;;;9.79;100.00;97883.59;2587066;28;20049;-84
2023/01/13 00:21:14;;;;;;;2.00;0.70;;;;;;;9.63;100.00;97883.22;2586522;28;20058;-84
2023/01/13 00:22:33;;;;;;;1.42;0.70;;;;;;;9.55;100.00;97885.25;2586656;28;20056;-84
2023/01/13 00:23:50;;;;;;;2.75;0.80;;;;;;;9.61;100.00;97885.91;2587141;28;20486;-84
2023/01/13 00:25:06;;;;;;;2.70;0.88;;;;;;;9.41;100.00;97883.94;2596165;28;20464;-85
2023/01/13 00:26:25;;;;;;;1.52;0.60;;;;;;;9.47;100.00;97877.69;2592132;28;20049;-84
2023/01/13 00:27:41;;;;;;;1.13;0.80;;;;;;;9.45;100.00;97872.50;2586922;28;20049;-84
2023/01/13 00:28:57;;;;;;;1.98;0.60;;;;;;;9.53;100.00;97877.47;2586936;28;20416;-84
2023/01/13 00:30:13;;;;;;;1.48;0.80;;;;;;;9.70;100.00;97881.25;2586842;28;20485;-84
2023/01/13 00:31:29;;;;;;;1.35;0.80;;;;;;;9.46;100.00;97868.97;2586151;28;20188;-85
2023/01/13 00:32:44;;;;;;;1.40;0.63;;;;;;;9.40;100.00;97868.31;2587066;28;20057;-84
2023/01/13 00:34:00;;;;;;;0.98;0.50;;;;;;;9.35;100.00;97871.06;2586446;28;20046;-84
2023/01/13 00:35:16;;;;;;;1.70;0.47;;;;;;;9.39;100.00;97875.31;2586717;28;20073;-83
2023/01/13 00:36:32;;;;;;;0.77;0.40;;;;;;;9.43;100.00;97870.84;2587093;28;20061;-83
2023/01/13 00:37:48;;;;;;;2.95;0.77;;;;;;;9.56;100.00;97863.44;2586301;28;20131;-84
2023/01/13 00:39:03;;;;;;;1.00;0.50;;;;;;;9.48;100.00;97868.94;2586256;28;20046;-85
2023/01/13 00:40:19;;;;;;;0.60;0.50;;;;;;;9.69;100.00;97863.88;2586955;28;20065;-83
2023/01/13 00:43:23;;;;;;;1.08;0.95;;;;;;;9.41;100.00;97868.28;2586477;28;20507;-88
2023/01/13 00:44:39;;;;;;;1.67;0.82;;;;;;;9.38;100.00;97857.94;2586641;28;20046;-84
2023/01/13 00:45:55;;;;;;;1.88;0.77;;;;;;;9.42;100.00;97856.06;2586510;28;20050;-84
2023/01/13 00:47:10;;;;;;;1.83;0.52;;;;;;;9.63;100.00;97862.31;2586401;28;20492;-84
2023/01/13 00:48:27;;;;;;;1.25;0.63;;;;;;;9.42;100.00;97862.16;2586673;28;20378;-86
2023/01/13 00:49:43;;;;;;;1.35;0.50;;;;;;;9.33;100.00;97867.66;2586899;28;20084;-84
2023/01/13 00:51:01;;;;;;;2.05;0.95;;;;;;;9.48;100.00;97855.88;2586508;28;20545;-87
2023/01/13 00:52:17;;;;;;;0.77;0.60;;;;;;;9.21;100.00;97861.06;2586658;28;20061;-83
2023/01/13 00:53:36;;;;;;;2.13;0.80;;;;;;;9.25;100.00;97861.84;2586642;28;20538;-84
2023/01/13 00:54:51;;;;;;;2.28;0.60;;;;;;;9.45;100.00;97861.19;2586575;28;20050;-84
2023/01/13 00:56:15;;;;;;;1.60;0.40;;;;;;;9.34;100.00;97851.06;2586872;28;20069;-85
2023/01/13 00:57:30;;;;;;;1.85;0.50;;;;;;;9.39;100.00;97854.41;2586765;28;20053;-84
2023/01/13 00:58:47;;;;;;;4.43;0.70;;;;;;;9.44;100.00;97857.72;2586887;28;20046;-83
2023/01/13 01:00:03;;;;;;;2.97;1.00;;;;;;;9.35;100.00;97857.16;2586708;28;20119;-84
2023/01/13 01:01:21;;;;;;;0.88;0.50;;;;;;;9.21;100.00;97860.22;2586095;28;20058;-84
2023/01/13 01:02:37;;;;;;;3.92;0.90;;;;;;;9.28;100.00;97856.50;2586251;28;20081;-84
2023/01/13 01:03:53;;;;;;;2.20;0.60;;;;;;;9.38;100.00;97850.09;2586599;28;20061;-84
2023/01/13 01:05:09;;;;;;;2.35;0.85;;;;;;;9.39;100.00;97851.81;2586655;28;20116;-83
2023/01/13 01:06:25;;;;;;;4.78;0.98;;;;;;;9.33;100.00;97849.38;2586211;28;20101;-84
2023/01/13 01:07:41;;;;;;;2.15;0.80;;;;;;;9.27;100.00;97860.88;2586886;28;20072;-84
2023/01/13 01:08:56;;;;;;;1.17;0.60;;;;;;;9.28;100.00;97856.50;2586106;28;20172;-84
2023/01/13 01:10:12;;;;;;;1.33;0.68;;;;;;;9.25;100.00;97856.63;2586257;28;20069;-85
2023/01/13 01:11:30;;;;;;;1.55;0.50;;;;;;;9.23;100.00;97861.03;2586714;28;20516;-84
2023/01/13 01:12:45;;;;;;;1.52;0.70;;;;;;;9.29;100.00;97863.44;2586539;28;20188;-85
2023/01/13 01:14:02;;;;;;;0.55;0.50;;;;;;;9.26;100.00;97867.00;2585617;28;20273;-83
2023/01/13 01:15:18;;;;;;;1.77;0.70;;;;;;;9.30;100.00;97873.84;2586328;28;20172;-83
2023/01/13 01:16:33;;;;;;;1.10;0.70;;;;;;;9.46;100.00;97860.28;2586516;28;20081;-83
2023/01/13 01:17:49;;;;;;;1.20;0.70;;;;;;;9.50;100.00;97861.03;2586508;28;20911;-83
2023/01/13 01:19:06;;;;;;;1.45;0.40;;;;;;;9.37;100.00;97864.06;2586298;28;20045;-85
2023/01/13 01:20:22;;;;;;;1.00;0.65;;;;;;;9.40;100.00;97860.47;2586260;28;20085;-84
2023/01/13 01:21:37;;;;;;;1.33;0.60;;;;;;;9.41;100.00;97863.03;2586528;28;20201;-83
2023/01/13 01:22:53;;;;;;;2.65;0.50;;;;;;;9.29;100.00;97860.84;2586371;28;20049;-84
2023/01/13 01:24:09;;;;;;;1.50;0.70;;;;;;;9.32;100.00;97864.22;2586416;28;20061;-84
2023/01/13 01:25:24;;;;;;;2.47;0.80;;;;;;;9.44;100.00;97862.09;2586248;28;20136;-86
2023/01/13 01:26:40;;;;;;;1.40;0.60;;;;;;;9.37;100.00;97861.44;2586413;28;20050;-85
2023/01/13 01:27:56;;;;;;;1.38;0.65;;;;;;;9.18;100.00;97861.19;2585337;28;20050;-85
2023/01/13 01:29:15;;;;;;;1.08;0.40;;;;;;;9.07;100.00;97858.88;2585867;28;20108;-85
2023/01/13 01:30:31;;;;;;;0.65;0.60;;;;;;;9.26;100.00;97858.31;2586515;28;20081;-84
2023/01/13 01:31:47;;;;;;;1.08;0.52;;;;;;;9.41;100.00;97868.28;2586251;28;20432;-84
2023/01/13 01:33:04;;;;;;;2.00;0.60;;;;;;;9.23;100.00;97855.81;2586186;28;20145;-85
2023/01/13 01:34:19;;;;;;;0.82;0.50;;;;;;;9.35;100.00;97855.41;2585957;28;20131;-84
2023/01/13 01:35:39;;;;;;;1.67;0.88;;;;;;;9.27;100.00;97863.47;2586230;28;20058;-84
2023/01/13 01:36:54;;;;;;;1.88;0.57;;;;;;;9.49;100.00;97857.56;2586437;28;20435;-84
2023/01/13 01:38:10;;;;;;;2.38;0.80;;;;;;;9.36;100.00;97869.31;2586237;28;20077;-84
2023/01/13 01:39:25;;;;;;;1.05;0.68;;;;;;;9.39;100.00;97864.00;2586307;28;20628;-87
2023/01/13 01:40:41;;;;;;;0.60;0.52;;;;;;;9.37;100.00;97863.19;2586484;28;20052;-85
2023/01/13 01:44:03;;;;;;;1.27;0.65;;;;;;;9.43;100.00;97863.84;2586152;28;20133;-87
2023/01/13 01:45:21;;;;;;;2.75;0.60;;;;;;;9.45;100.00;97861.19;2585871;28;20611;-83
2023/01/13 01:46:42;;;;;;;0.47;0.30;;;;;;;9.42;100.00;97864.75;2586241;28;20104;-85
2023/01/13 01:48:03;;;;;;;1.95;0.70;;;;;;;9.56;100.00;97864.28;2586059;28;20171;-85
2023/01/13 01:49:32;;;;;;;1.42;0.60;;;;;;;9.38;100.00;97862.28;2586244;28;20064;-83
2023/01/13 01:50:47;;;;;;;1.48;0.57;;;;;;;9.42;100.00;97858.66;2585852;28;20057;-86
2023/01/13 01:52:10;;;;;;;0.40;0.40;;;;;;;9.36;100.00;97857.13;2586081;28;20140;-83
2023/01/13 01:53:28;;;;;;;1.60;0.50;;;;;;;9.27;100.00;97858.25;2586012;28;20076;-84
2023/01/13 01:54:49;;;;;;;1.05;0.65;;;;;;;9.41;100.00;97855.22;2586033;28;20053;-84
2023/01/13 01:56:08;;;;;;;4.32;0.88;;;;;;;9.59;100.00;97860.72;2586087;28;20057;-86
2023/01/13 01:57:38;;;;;;;0.47;0.32;;;;;;;9.45;100.00;97853.34;2585740;28;20086;-90
2023/01/13 01:58:54;;;;;;;0.68;0.60;;;;;;;9.54;100.00;97854.81;2586300;28;20049;-83
2023/01/13 02:00:10;;;;;;;1.65;0.70;;;;;;;9.70;100.00;97855.13;2586190;28;20088;-84
2023/01/13 02:01:25;;;;;;;1.58;0.80;;;;;;;9.64;100.00;97864.06;2585753;28;20050;-88
2023/01/13 02:02:45;;;;;;;2.03;0.70;;;;;;;9.53;100.00;97860.94;2585734;28;20144;-84
2023/01/13 02:04:08;;;;;;;0.80;0.45;;;;;;;9.29;100.00;97860.84;2586107;28;20716;-84
2023/01/13 02:05:24;;;;;;;1.13;0.50;;;;;;;9.49;100.00;97856.69;2585935;28;20072;-84
2023/01/13 02:06:41;;;;;;;1.42;0.63;;;;;;;9.36;100.00;97848.44;2585673;28;20062;-86
2023/01/13 02:07:59;;;;;;;0.85;0.80;;;;;;;9.50;100.00;97863.63;2586376;28;20045;-83
2023/01/13 02:09:16;;;;;;;1.58;0.80;;;;;;;9.52;100.00;97849.63;2586201;28;20268;-83
2023/01/13 02:10:31;;;;;;;2.85;0.80;;;;;;;9.42;100.00;97851.69;2585883;28;20497;-84
2023/01/13 02:13:22;;;;;;;1.67;1.00;;;;;;;9.62;100.00;97860.63;2585898;28;20050;-87
2023/01/13 02:14:38;;;;;;;1.38;0.80;;;;;;;9.45;100.00;97843.75;2585776;28;20050;-84
2023/01/13 02:16:06;;;;;;;1.83;0.80;;;;;;;9.35;100.00;97842.34;2585742;28;20904;-83
2023/01/13 02:17:37;;;;;;;1.13;0.50;;;;;;;9.40;100.00;97835.22;2585600;28;20124;-84
2023/01/13 02:19:03;;;;;;;0.80;0.60;;;;;;;9.43;100.00;97829.03;2585993;28;20596;-87
2023/01/13 02:20:37;;;;;;;0.65;0.50;;;;;;;9.52;100.00;97830.50;2585999;28;20416;-84
2023/01/13 02:22:14;;;;;;;0.90;0.47;;;;;;;9.33;100.00;97826.72;2586027;28;20085;-84
2023/01/13 02:25:44;;;;;;;5.03;0.98;;;;;;;9.39;100.00;97828.28;2584950;28;20056;-85
2023/01/13 02:27:15;;;;;;;1.08;0.65;;;;;;;9.48;100.00;97824.50;2585815;28;20576;-85
2023/01/13 02:31:40;;;;;;;1.33;0.70;;;;;;;9.52;100.00;97820.88;2585912;28;20054;-84
2023/01/13 02:32:24;;;;;;;4.00;0.60;;;;;;;9.28;100.00;97819.94;2585964;28;20050;-85
2023/01/13 02:33:54;;;;;;;1.73;0.95;;;;;;;9.41;100.00;97818.63;2585691;28;20404;-90
2023/01/13 02:35:20;;;;;;;1.73;0.85;;;;;;;9.45;100.00;97817.63;2585607;28;20180;-84
2023/01/13 02:36:40;;;;;;;0.88;0.60;;;;;;;9.52;100.00;97826.09;2586056;28;20127;-83
2023/01/13 02:37:58;;;;;;;1.40;0.80;;;;;;;9.55;100.00;97818.16;2585802;28;20046;-87
2023/01/13 02:39:23;;;;;;;1.52;0.80;;;;;;;9.45;100.00;97820.22;2585720;28;20077;-84
2023/01/13 02:40:46;;;;;;;1.17;0.65;;;;;;;9.34;100.00;97819.72;2585839;28;20057;-87
2023/01/13 02:44:06;;;;;;;0.80;0.60;;;;;;;9.38;100.00;97815.25;2585823;28;20050;-84
2023/01/13 02:45:31;;;;;;;1.52;0.80;;;;;;;9.33;100.00;97807.56;2585572;28;20050;-84
2023/01/13 02:47:24;;;;;;;1.95;0.77;;;;;;;9.50;100.00;97800.91;2585755;28;20081;-84
2023/01/13 02:48:44;;;;;;;0.55;0.55;;;;;;;9.49;100.00;97802.69;2585807;28;20528;-84
2023/01/13 02:50:16;;;;;;;1.42;0.68;;;;;;;9.39;100.00;97798.69;2585844;28;20046;-84
2023/01/13 02:51:33;;;;;;;1.88;0.50;;;;;;;9.44;100.00;97800.22;2585758;28;20136;-84
2023/01/13 02:52:56;;;;;;;1.35;0.65;;;;;;;9.33;100.00;97799.72;2585462;28;20058;-83
2023/01/13 02:54:18;;;;;;;1.20;0.60;;;;;;;9.28;100.00;97793.81;2585685;28;20049;-84
2023/01/13 02:55:38;;;;;;;2.00;0.70;;;;;;;9.28;100.00;97793.81;2585707;28;20081;-83
2023/01/13 02:56:56;;;;;;;1.35;0.60;;;;;;;9.17;100.00;97796.78;2585710;28;20072;-86
2023/01/13 02:58:16;;;;;;;0.57;0.55;;;;;;;9.24;100.00;97793.06;2585885;28;20216;-85
2023/01/13 02:59:33;;;;;;;2.28;0.70;;;;;;;9.42;100.00;97795.94;2585729;28;20484;-84
2023/01/13 03:00:49;;;;;;;0.63;0.52;;;;;;;9.49;100.00;97796.59;2585437;28;20054;-86
2023/01/13 03:02:07;;;;;;;1.05;0.70;;;;;;;9.31;100.00;97793.72;2585767;28;20535;-85
2023/01/13 03:03:23;;;;;;;1.27;0.55;;;;;;;9.42;100.00;97789.00;2585590;28;20061;-84
2023/01/13 03:04:44;;;;;;;1.65;0.60;;;;;;;9.31;100.00;97789.34;2585457;28;20061;-86
2023/01/13 03:06:25;;;;;;;3.20;0.65;;;;;;;9.33;100.00;97786.66;2585452;28;20080;-83
2023/01/13 03:08:14;;;;;;;0.95;0.50;;;;;;;9.21;100.00;97781.84;2585775;28;20357;-84
2023/01/13 03:09:41;;;;;;;0.70;0.40;;;;;;;9.06;100.00;97778.00;2555169;28;20050;-87
2023/01/13 03:11:06;;;;;;;1.00;0.50;;;;;;;9.26;100.00;97779.97;2585646;28;20038;-85
2023/01/13 03:13:02;;;;;;;1.83;0.55;;;;;;;9.11;100.00;97779.56;2585425;28;20127;-84
2023/01/13 03:14:40;;;;;;;0.75;0.40;;;;;;;9.23;100.00;97783.53;2571621;28;20189;-84
2023/01/13 03:15:56;;;;;;;1.30;0.50;;;;;;;9.19;100.00;97777.53;2585766;28;20515;-85
2023/01/13 03:17:26;;;;;;;0.77;0.43;;;;;;;9.22;100.00;97778.34;2585549;28;20081;-85
2023/01/13 03:18:47;;;;;;;1.73;0.65;;;;;;;9.27;100.00;97781.66;2585595;28;20052;-84
2023/01/13 03:20:18;;;;;;;0.85;0.50;;;;;;;9.27;100.00;97779.06;2585562;28;20050;-84
2023/01/13 03:21:50;;;;;;;0.70;0.57;;;;;;;9.33;100.00;97776.22;2585250;28;20092;-85
2023/01/13 03:23:20;;;;;;;1.65;0.60;;;;;;;9.43;100.00;97782.84;2585509;28;20077;-84
2023/01/13 03:24:41;;;;;;;1.05;0.50;;;;;;;9.38;100.00;97779.56;2585486;28;20782;-85
2023/01/13 03:26:22;;;;;;;0.38;0.38;;;;;;;9.30;100.00;97777.19;2585392;28;20085;-84
2023/01/13 03:27:57;;;;;;;0.70;0.50;;;;;;;9.52;100.00;97780.84;2585431;28;20061;-85
2023/01/13 03:29:34;;;;;;;1.88;0.98;;;;;;;9.41;100.00;97778.56;2585221;28;20056;-84
2023/01/13 03:30:57;;;;;;;0.95;0.32;;;;;;;9.29;100.00;97774.63;2585590;28;20078;-85
2023/01/13 03:32:17;;;;;;;0.52;0.50;;;;;;;9.25;100.00;97775.66;2585367;28;20132;-85
2023/01/13 03:33:40;;;;;;;0.63;0.60;;;;;;;9.38;100.00;97776.94;2585679;28;20064;-84
2023/01/13 03:35:14;;;;;;;1.02;0.57;;;;;;;9.40;100.00;97776.88;2585374;28;20552;-84
2023/01/13 03:36:33;;;;;;;0.80;0.50;;;;;;;9.34;100.00;97767.47;2585665;28;20069;-84
2023/01/13 03:37:56;;;;;;;0.32;0.30;;;;;;;9.33;100.00;97771.00;2587446;28;20092;-84
2023/01/13 03:39:20;;;;;;;1.52;0.70;;;;;;;9.43;100.00;97764.56;2587566;28;20046;-84
2023/01/13 03:40:48;;;;;;;1.65;0.73;;;;;;;9.46;100.00;97772.28;2587655;28;20084;-84
2023/01/13 03:42:11;;;;;;;0.57;0.40;;;;;;;9.40;100.00;97772.50;2587674;28;20606;-84
2023/01/13 03:45:16;;;;;;;1.75;0.50;;;;;;;9.39;100.00;97762.97;2587442;28;20050;-83
2023/01/13 03:46:43;;;;;;;0.20;0.20;;;;;;;9.44;100.00;97762.81;2587224;28;20552;-87
2023/01/13 03:48:05;;;;;;;0.63;0.40;;;;;;;9.35;100.00;97776.19;2587286;28;20096;-84
2023/01/13 03:49:25;;;;;;;2.13;0.50;;;;;;;9.33;100.00;97761.41;2587368;28;20084;-84
2023/01/13 03:50:48;;;;;;;0.82;0.43;;;;;;;9.41;100.00;97776.84;2587335;28;20417;-84
2023/01/13 03:52:08;;;;;;;0.50;0.40;;;;;;;9.38;100.00;97776.94;2587209;28;20054;-85
2023/01/13 03:53:31;;;;;;;0.63;0.50;;;;;;;9.42;100.00;97769.81;2587382;28;20152;-84
2023/01/13 03:54:55;;;;;;;0.85;0.60;;;;;;;9.48;100.00;97767.03;2586687;28;20058;-84
2023/01/13 03:56:21;;;;;;;1.02;0.50;;;;;;;9.43;100.00;97772.41;2587216;28;20449;-84
2023/01/13 03:57:45;;;;;;;1.55;0.95;;;;;;;9.32;100.00;97764.06;2587292;28;20080;-83
2023/01/13 03:59:03;;;;;;;0.70;0.55;;;;;;;9.45;100.00;97770.59;2587261;28;20060;-84
2023/01/13 04:00:24;;;;;;;1.85;0.60;;;;;;;9.43;100.00;97772.41;2587306;28;20054;-84
2023/01/13 04:02:01;;;;;;;0.98;0.60;;;;;;;9.50;100.00;97767.81;2587024;28;20057;-83
2023/01/13 04:03:25;;;;;;;3.40;0.60;;;;;;;9.65;100.00;97769.06;2587356;28;20100;-84
2023/01/13 04:04:50;;;;;;;2.45;0.90;;;;;;;9.57;100.00;97773.69;2587224;28;20411;-83
2023/01/13 04:06:16;;;;;;;0.25;0.25;;;;;;;9.46;100.00;97769.69;2586754;28;20093;-83
2023/01/13 04:07:44;;;;;;;0.60;0.52;;;;;;;9.71;100.00;97771.44;2586346;28;20052;-83
2023/01/13 04:09:12;;;;;;;0.77;0.57;;;;;;;9.40;100.00;97766.41;2587199;28;20057;-83
2023/01/13 04:10:32;;;;;;;0.63;0.60;;;;;;;9.47;100.00;97774.00;2587281;28;20054;-84
2023/01/13 04:11:56;;;;;;;2.05;0.50;;;;;;;9.45;100.00;97769.75;2586968;28;20489;-84
2023/01/13 04:13:15;;;;;;;0.93;0.60;;;;;;;9.47;100.00;97763.53;2586817;28;20548;-84
2023/01/13 04:14:32;;;;;;;0.98;0.50;;;;;;;9.56;100.00;97772.81;2586659;28;20081;-86
2023/01/13 04:15:48;;;;;;;0.57;0.50;;;;;;;9.70;100.00;97777.56;2586952;28;20045;-86
2023/01/13 04:17:04;;;;;;;0.88;0.50;;;;;;;9.78;100.00;97779.91;2587033;28;20077;-83
2023/01/13 04:18:28;;;;;;;1.60;0.50;;;;;;;9.52;100.00;97770.38;2587220;28;20046;-84
2023/01/13 04:19:43;;;;;;;0.90;0.40;;;;;;;9.60;100.00;97777.06;2587066;28;20564;-83
2023/01/13 04:21:00;;;;;;;1.58;0.60;;;;;;;9.59;100.00;97779.72;2587146;28;20060;-84
2023/01/13 04:22:16;;;;;;;2.55;0.50;;;;;;;9.70;100.00;97785.41;2587120;28;20483;-84
2023/01/13 04:23:32;;;;;;;1.83;0.80;;;;;;;9.73;100.00;97779.25;2587135;28;20049;-83
2023/01/13 04:24:47;;;;;;;1.38;0.50;;;;;;;9.42;100.00;97775.91;2586869;28;20577;-86
2023/01/13 04:26:03;;;;;;;1.17;0.50;;;;;;;9.53;100.00;97772.09;2585105;28;20054;-83
2023/01/13 04:27:18;;;;;;;0.95;0.45;;;;;;;9.59;100.00;97777.97;2587059;28;20065;-83
2023/01/13 04:28:34;;;;;;;1.40;0.43;;;;;;;9.64;100.00;97783.03;2587245;28;20409;-82
2023/01/13 04:29:49;;;;;;;2.78;0.93;;;;;;;9.65;100.00;97776.91;2587116;28;20046;-83
2023/01/13 04:31:05;;;;;;;0.57;0.43;;;;;;;9.46;100.00;97774.06;2585976;28;20272;-83
2023/01/13 04:32:21;;;;;;;1.17;0.60;;;;;;;9.52;100.00;97775.63;2587231;28;20494;-83
2023/01/13 04:33:36;;;;;;;1.88;0.80;;;;;;;9.80;100.00;97774.66;2586851;28;20053;-84
2023/01/13 04:34:52;;;;;;;2.58;0.73;;;;;;;9.75;100.00;97785.25;2586724;28;20058;-84
2023/01/13 04:36:08;;;;;;;1.02;0.60;;;;;;;9.64;100.00;97777.81;2586862;28;20503;-83
2023/01/13 04:37:23;;;;;;;1.55;0.43;;;;;;;9.69;100.00;97769.78;2586723;28;20637;-88
2023/01/13 04:38:39;;;;;;;1.83;0.50;;;;;;;9.64;100.00;97764.75;2586999;28;20053;-85
2023/01/13 04:39:54;;;;;;;0.47;0.38;;;;;;;9.52;100.00;97767.78;2587137;28;20124;-85
2023/01/13 04:41:10;;;;;;;0.40;0.40;;;;;;;9.72;100.00;97760.06;2586810;28;20050;-84
2023/01/13 04:42:26;;;;;;;1.10;0.70;;;;;;;9.77;100.00;97765.16;2587104;28;20062;-83
2023/01/13 04:43:41;;;;;;;0.52;0.52;;;;;;;9.62;100.00;97763.91;2586275;28;20053;-83
2023/01/13 04:44:57;;;;;;;2.40;0.80;;;;;;;9.64;100.00;97754.28;2587061;28;20053;-83
2023/01/13 04:46:13;;;;;;;2.80;0.80;;;;;;;9.64;100.00;97759.50;2586682;28;20246;-82
2023/01/13 04:47:28;;;;;;;1.08;0.57;;;;;;;9.70;100.00;97758.41;2586642;28;20057;-83
2023/01/13 04:48:44;;;;;;;0.82;0.50;;;;;;;9.75;100.00;97757.34;2585633;28;20052;-83
2023/01/13 04:49:59;;;;;;;1.95;0.82;;;;;;;9.84;100.00;97753.53;2586602;28;20096;-83
2023/01/13 04:51:15;;;;;;;1.42;0.80;;;;;;;9.78;100.00;97755.53;2586470;28;20522;-84
2023/01/13 04:52:31;;;;;;;3.33;0.80;;;;;;;9.82;100.00;97765.81;2586659;28;20053;-83
2023/01/13 04:53:46;;;;;;;1.75;0.63;;;;;;;9.66;100.00;97757.69;2586310;28;20503;-83
2023/01/13 04:55:02;;;;;;;0.63;0.50;;;;;;;9.57;100.00;97760.63;2586448;28;20099;-84
2023/01/13 04:56:18;;;;;;;1.27;0.55;;;;;;;9.67;100.00;97762.00;2586502;28;20049;-83
2023/01/13 04:57:33;;;;;;;2.42;0.77;;;;;;;9.72;100.00;97749.63;2586393;28;20054;-84
2023/01/13 04:58:49;;;;;;;2.03;0.73;;;;;;;9.81;100.00;97753.66;2586272;28;20046;-83
2023/01/13 05:00:06;;;;;;;2.70;1.10;;;;;;;9.91;100.00;97751.56;2586362;28;20050;-83
2023/01/13 05:01:22;;;;;;;1.65;0.70;;;;;;;9.91;100.00;97751.56;2583709;28;20042;-83
2023/01/13 05:02:38;;;;;;;2.72;1.00;;;;;;;9.78;100.00;97751.16;2586382;28;20496;-87
2023/01/13 05:03:53;;;;;;;1.05;0.63;;;;;;;9.79;100.00;97745.03;2586679;28;20053;-83
2023/01/13 05:05:09;;;;;;;2.17;0.70;;;;;;;9.66;100.00;97746.38;2586335;28;20058;-83
2023/01/13 05:06:25;;;;;;;1.85;0.55;;;;;;;9.81;100.00;97750.22;2586029;28;20544;-84
2023/01/13 05:07:41;;;;;;;1.25;0.70;;;;;;;9.97;100.00;97755.72;2586697;28;20046;-83
2023/01/13 05:08:56;;;;;;;1.75;0.60;;;;;;;9.73;100.00;97753.09;2586611;28;20045;-84
2023/01/13 05:10:12;;;;;;;1.77;0.60;;;;;;;9.85;100.00;97757.91;2585695;28;20412;-82
2023/01/13 05:17:45;;;;;;;2.13;0.95;;;;;;;9.81;100.00;97763.28;2586589;28;20061;-84
2023/01/13 05:19:01;;;;;;;1.52;0.85;;;;;;;9.71;100.00;97758.38;2586198;28;20554;-83
2023/01/13 05:20:17;;;;;;;4.03;0.50;;;;;;;9.75;100.00;97766.97;2586562;28;20089;-86
2023/01/13 05:26:15;;;;;;;1.30;0.60;;;;;;;9.72;100.00;97760.06;2586430;28;20058;-83
2023/01/13 05:27:32;;;;;;;13.10;1.83;;;;;;;9.63;100.00;97764.78;2587012;28;20523;-87
2023/01/13 05:28:48;;;;;;;1.17;0.60;;;;;;;9.65;100.00;97758.59;2586506;28;20060;-84
2023/01/13 05:30:04;;;;;;;1.55;0.70;;;;;;;9.74;100.00;97758.25;2586272;28;20069;-84
2023/01/13 05:31:20;;;;;;;4.03;0.70;;;;;;;9.80;100.00;97756.34;2585987;28;20408;-84
2023/01/13 05:32:36;;;;;;;0.95;0.60;;;;;;;9.80;100.00;97759.81;2586211;28;20065;-88
2023/01/13 05:33:51;;;;;;;1.08;0.80;;;;;;;9.83;100.00;97751.00;2586195;28;20504;-84
2023/01/13 05:35:07;;;;;;;1.52;0.80;;;;;;;9.84;100.00;97756.16;2585786;28;20100;-84
2023/01/13 05:37:19;;;;;;;;;;;;;;;;;;;;;
2023/01/13 05:39:04;;;;;;;2.03;0.95;;;;;;;9.96;100.00;97760.09;2522191;28;20062;-87
2023/01/13 05:43:45;;;;;;;1.50;0.75;;;;;;;9.77;100.00;97756.44;2585311;28;20456;-83
2023/01/13 05:45:01;;;;;;;1.23;0.68;;;;;;;9.79;100.00;97760.72;2585441;28;20054;-83
2023/01/13 05:46:16;;;;;;;0.90;0.68;;;;;;;9.94;100.00;97753.22;2585265;28;20073;-85
2023/01/13 05:47:32;;;;;;;1.15;0.52;;;;;;;9.96;100.00;97754.88;2585549;28;20062;-85
2023/01/13 05:48:47;;;;;;;1.15;0.57;;;;;;;9.86;100.00;97751.75;2585123;28;20100;-83
2023/01/13 05:50:03;;;;;;;1.30;0.80;;;;;;;9.94;100.00;97755.84;2585191;28;20092;-89
2023/01/13 05:51:24;;;;;;;3.00;0.88;;;;;;;9.75;100.00;97759.97;2585519;28;20496;-84
2023/01/13 05:52:40;;;;;;;0.30;0.30;;;;;;;9.54;100.00;97760.72;2584760;28;20116;-85
2023/01/13 05:53:58;;;;;;;0.88;0.50;;;;;;;9.77;100.00;97754.69;2585191;28;20149;-85
2023/01/13 05:55:13;;;;;;;1.35;0.60;;;;;;;9.91;100.00;97755.94;2585494;28;20165;-84
2023/01/13 05:56:29;;;;;;;0.68;0.60;;;;;;;9.73;100.00;97756.56;2585800;28;20709;-82
2023/01/13 05:57:45;;;;;;;1.88;0.82;;;;;;;9.70;100.00;97761.91;2585371;28;20081;-86
2023/01/13 05:59:00;;;;;;;1.88;0.63;;;;;;;9.68;100.00;97762.84;2584807;28;20451;-83
2023/01/13 06:00:17;;;;;;;0.90;0.70;;;;;;;9.80;100.00;97751.97;2585190;28;20136;-82
2023/01/13 06:01:32;;;;;;;0.60;0.40;;;;;;;9.57;100.00;97763.22;2584879;28;20053;-83
2023/01/13 06:02:48;;;;;;;3.03;0.80;;;;;;;9.75;100.00;97757.34;2585142;28;20542;-83
2023/01/13 06:04:04;;;;;;;0.50;0.50;;;;;;;9.82;100.00;97757.16;2585565;28;20053;-81
2023/01/13 06:05:19;;;;;;;0.90;0.60;;;;;;;9.66;100.00;97756.81;2585333;28;20050;-83
2023/01/13 06:06:35;;;;;;;1.05;0.57;;;;;;;9.68;100.00;97748.03;2584807;28;20057;-84
2023/01/13 06:07:51;;;;;;;1.45;0.60;;;;;;;9.57;100.00;97756.25;2585766;28;20512;-83
2023/01/13 06:09:06;;;;;;;1.08;0.70;;;;;;;9.61;100.00;97751.75;2585938;28;20088;-82
2023/01/13 06:10:23;;;;;;;2.22;0.43;;;;;;;9.63;100.00;97755.16;2586038;28;20099;-83
2023/01/13 06:11:38;;;;;;;2.95;0.70;;;;;;;9.71;100.00;97755.75;2585834;28;20077;-83
2023/01/13 06:12:54;;;;;;;1.00;0.60;;;;;;;9.70;100.00;97758.41;2585816;28;20053;-83
2023/01/13 06:14:09;;;;;;;2.58;0.93;;;;;;;9.78;100.00;97753.78;2585823;28;20052;-82
2023/01/13 06:15:25;;;;;;;2.85;0.52;;;;;;;9.70;100.00;97746.22;2585606;28;20515;-87
2023/01/13 06:16:41;;;;;;;1.30;0.70;;;;;;;9.52;100.00;97755.56;2585871;28;20049;-82
2023/01/13 06:17:56;;;;;;;3.53;0.63;;;;;;;9.61;100.00;97762.22;2586122;28;20046;-85
2023/01/13 06:19:12;;;;;;;0.60;0.50;;;;;;;9.66;100.00;97760.31;2584740;28;20115;-85
2023/01/13 06:20:28;;;;;;;1.08;0.45;;;;;;;9.69;100.00;97757.56;2585875;28;20069;-85
2023/01/13 06:21:44;;;;;;;1.98;0.70;;;;;;;9.96;100.00;97759.25;2585605;28;20045;-86
2023/01/13 06:23:00;;;;;;;2.08;0.75;;;;;;;10.02;100.00;97761.66;2585866;28;20054;-86
2023/01/13 06:24:15;;;;;;;1.10;0.60;;;;;;;9.98;100.00;97758.28;2584601;28;20042;-84
2023/01/13 06:25:50;;;;;;;1.25;0.73;;;;;;;9.52;100.00;97752.09;2586020;28;20220;-85
2023/01/13 06:27:07;;;;;;;1.08;0.65;;;;;;;9.64;100.00;97756.91;2585480;28;20096;-85
2023/01/13 06:28:23;;;;;;;0.50;0.50;;;;;;;9.59;100.00;97748.34;2585846;28;20053;-84
2023/01/13 06:29:39;;;;;;;2.30;0.65;;;;;;;9.76;100.00;97752.97;2586033;28;20192;-85
2023/01/13 06:30:58;;;;;;;2.72;1.13;;;;;;;9.71;100.00;97750.53;2585590;28;20459;-85
2023/01/13 06:32:30;;;;;;;1.23;0.43;;;;;;;9.60;100.00;97747.44;2585583;28;20500;-85
2023/01/13 06:33:55;;;;;;;1.17;0.50;;;;;;;9.72;100.00;97752.22;2585565;28;20500;-85
2023/01/13 06:35:14;;;;;;;1.13;0.70;;;;;;;9.70;100.00;97746.22;2585618;28;20061;-84
2023/01/13 06:36:45;;;;;;;0.90;0.63;;;;;;;9.65;100.00;97744.66;2585609;28;20053;-85
2023/01/13 06:38:08;;;;;;;1.25;0.68;;;;;;;9.75;100.00;97741.66;2585771;28;20519;-85
2023/01/13 06:39:27;;;;;;;1.95;0.57;;;;;;;9.70;100.00;97737.50;2585722;28;20499;-85
2023/01/13 06:40:43;;;;;;;1.20;0.45;;;;;;;9.51;100.00;97738.16;2585547;28;20046;-87
2023/01/13 06:43:33;;;;;;;1.83;0.60;;;;;;;9.73;100.00;97743.47;2585746;28;20041;-85
2023/01/13 06:44:49;;;;;;;0.85;0.50;;;;;;;9.77;100.00;97744.22;2584271;28;20058;-88